Time;durP1;ratioP1;P1;durP2;ratioP2;P2;SDS_P1;SDS_P2;PMS_P1;PMS_P2;Temp;Humidity;BMP_temperature;BMP_pressure;BME280_temperature;BME280_humidity;BME280_pressure;Samples;Min_cycle;Max_cycle;Signal;HPM_P1;HPM_P2
2021/01/03 00:01:04;;;;;;;6.28;5.00;;;4.50;99.90;;;3.71;84.04;101032.91;4103259;29;20031;-72
2021/01/03 00:03:05;;;;;;;9.52;4.68;;;4.50;99.90;;;3.70;83.71;101025.22;4104662;28;20027;-72
2021/01/03 00:05:06;;;;;;;6.63;5.22;;;4.40;99.90;;;3.80;83.17;101018.41;4104163;28;20031;-72
2021/01/03 00:07:07;;;;;;;6.95;4.60;;;4.40;99.90;;;3.95;83.71;101019.94;4104475;28;20035;-72
2021/01/03 00:09:09;;;;;;;9.40;5.22;;;4.50;99.90;;;3.54;83.86;101032.41;4104228;28;20023;-72
2021/01/03 00:11:10;;;;;;;7.72;4.63;;;4.40;99.90;;;3.72;84.39;101018.94;4087281;29;20035;-72
2021/01/03 00:13:11;;;;;;;7.78;4.55;;;4.40;99.90;;;3.77;83.69;101016.00;4103166;29;20525;-72
2021/01/03 00:15:19;;;;;;;9.43;5.32;;;4.40;99.90;;;3.82;84.25;101019.16;4104431;28;20032;-72
2021/01/03 00:17:20;;;;;;;7.80;5.30;;;4.40;99.90;;;3.84;84.13;101017.25;4104482;28;20448;-72
2021/01/03 00:19:21;;;;;;;5.88;4.50;;;4.40;99.90;;;3.84;84.54;101007.66;4102796;29;20066;-72
2021/01/03 00:21:22;;;;;;;6.75;4.50;;;4.40;99.90;;;3.92;83.71;101014.94;4104319;28;20032;-72
2021/01/03 00:23:23;;;;;;;6.97;5.10;;;4.40;99.90;;;3.83;83.94;101010.38;4102934;29;20031;-72
2021/01/03 00:25:26;;;;;;;8.15;4.03;;;4.40;99.90;;;3.66;84.48;101003.72;4104260;28;20035;-72
2021/01/03 00:27:27;;;;;;;8.27;5.28;;;4.40;99.90;;;3.77;84.47;101003.81;4104261;28;20063;-72
2021/01/03 00:29:28;;;;;;;5.53;4.90;;;4.40;99.90;;;3.78;84.31;100996.81;4104025;28;20028;-72
2021/01/03 00:31:29;;;;;;;7.57;5.45;;;4.40;99.90;;;3.85;83.75;100996.25;4104068;28;20097;-72
2021/01/03 00:33:29;;;;;;;6.38;4.68;;;4.40;99.90;;;3.96;83.53;100992.09;4102951;28;20028;-72
2021/01/03 00:35:34;;;;;;;7.05;5.93;;;4.40;99.90;;;4.09;82.71;100992.91;4103787;28;20447;-72
2021/01/03 00:37:35;;;;;;;7.15;5.55;;;4.50;99.90;;;3.94;83.08;100979.16;4104209;28;20510;-72
2021/01/03 00:39:36;;;;;;;6.70;4.95;;;4.50;99.90;;;3.96;83.95;100979.88;4102412;28;20055;-72
2021/01/03 00:41:37;;;;;;;6.47;4.97;;;4.50;99.90;;;3.93;83.80;100974.88;4103859;28;20038;-72
2021/01/03 00:43:38;;;;;;;12.02;5.13;;;4.50;99.90;;;3.81;84.53;100976.56;4102435;28;20122;-72
2021/01/03 00:45:40;;;;;;;8.68;5.60;;;4.40;99.90;;;3.80;84.43;100968.84;4102573;29;20035;-72
2021/01/03 00:47:41;;;;;;;10.30;6.45;;;4.40;99.90;;;3.94;84.56;100979.16;4111058;28;20038;-72
2021/01/03 00:49:42;;;;;;;9.80;6.70;;;4.40;99.90;;;4.00;83.57;100978.72;4103387;28;20372;-72
2021/01/03 00:51:43;;;;;;;10.25;7.30;;;5.10;99.90;;;4.01;83.96;100967.31;4086616;29;20559;-72
2021/01/03 00:53:44;;;;;;;9.50;8.00;;;4.50;99.90;;;3.95;85.19;100967.75;4102484;29;20421;-72
2021/01/03 00:55:45;;;;;;;13.40;7.97;;;4.50;99.90;;;3.89;85.60;100966.41;4103667;28;20027;-72
2021/01/03 00:57:46;;;;;;;10.77;7.65;;;4.40;99.90;;;3.82;85.61;100970.38;4103451;28;20459;-72
2021/01/03 00:59:47;;;;;;;6.93;5.10;;;4.40;99.90;;;3.80;85.92;100959.22;4102460;28;20039;-72
2021/01/03 01:01:48;;;;;;;8.40;4.20;;;4.40;99.90;;;3.77;86.36;100969.03;4103480;28;20035;-72
2021/01/03 01:03:50;;;;;;;6.85;4.70;;;4.40;99.90;;;3.75;86.92;100970.94;4102284;28;20094;-72
2021/01/03 01:05:51;;;;;;;5.20;4.32;;;4.30;99.90;;;3.84;86.14;100972.91;4101727;29;20027;-72
2021/01/03 01:07:52;;;;;;;9.43;6.47;;;4.30;99.90;;;3.91;86.02;100968.94;4102331;29;20027;-72
2021/01/03 01:09:53;;;;;;;11.70;8.82;;;4.40;99.90;;;3.82;86.75;100961.75;4114643;28;20037;-72
2021/01/03 01:11:54;;;;;;;10.27;6.35;;;4.40;99.90;;;3.89;85.46;100966.41;4103400;28;20031;-72
2021/01/03 01:13:55;;;;;;;6.55;4.80;;;4.40;99.90;;;3.92;85.79;100970.59;4103335;28;20039;-72
2021/01/03 01:15:56;;;;;;;8.98;6.18;;;4.40;99.90;;;4.15;84.78;100980.22;4102305;28;20031;-72
2021/01/03 01:18:04;;;;;;;5.35;4.85;;;4.50;99.90;;;4.17;84.28;100977.53;4103506;28;20038;-72
2021/01/03 01:20:07;;;;;;;9.30;6.60;;;4.60;99.90;;;4.05;83.73;100976.63;4101966;28;20050;-72
2021/01/03 01:22:08;;;;;;;13.13;8.00;;;4.50;99.90;;;4.01;83.75;100975.16;4086074;29;20039;-72
2021/01/03 01:24:09;;;;;;;12.45;8.18;;;4.50;99.90;;;3.93;83.35;100967.03;4102178;29;20055;-72
2021/01/03 01:26:10;;;;;;;9.50;7.28;;;4.60;99.90;;;3.79;84.51;100982.84;4102159;29;20033;-72
2021/01/03 01:28:11;;;;;;;10.35;7.07;;;4.60;99.90;;;3.52;84.95;100958.66;4102148;29;20506;-72
2021/01/03 01:30:14;;;;;;;10.13;6.85;;;4.40;99.90;;;3.48;86.02;100962.41;4103430;28;20028;-72
2021/01/03 01:32:14;;;;;;;8.57;6.65;;;4.30;99.90;;;3.64;86.89;100974.31;4103467;28;20032;-72
2021/01/03 01:34:16;;;;;;;8.32;6.68;;;4.30;99.90;;;3.45;86.63;100958.25;4103100;28;20086;-72
2021/01/03 01:36:17;;;;;;;9.57;7.03;;;4.20;99.90;;;3.44;86.73;100958.34;4086344;29;20032;-72
2021/01/03 01:38:18;;;;;;;6.90;5.70;;;4.20;99.90;;;3.33;86.54;100954.69;4103395;28;20081;-72
2021/01/03 01:40:25;;;;;;;7.55;5.32;;;4.20;99.90;;;3.26;86.89;100948.22;4086353;29;20039;-72
2021/01/03 01:42:27;;;;;;;6.32;5.55;;;4.10;99.90;;;3.15;88.10;100949.91;4095794;29;20402;-72
2021/01/03 01:44:27;;;;;;;8.20;5.75;;;4.00;99.90;;;3.19;87.99;100951.38;4103299;28;20031;-72
2021/01/03 01:46:36;;;;;;;7.32;5.53;;;3.90;99.90;;;3.31;88.86;100951.38;4103400;28;20041;-72
2021/01/03 01:48:42;;;;;;;8.15;5.90;;;4.00;99.90;;;3.44;88.77;100955.72;4106054;28;20028;-72
2021/01/03 01:50:53;;;;;;;5.55;4.93;;;4.00;99.90;;;3.48;88.76;100962.41;4101952;28;20030;-72
2021/01/03 01:52:57;;;;;;;6.15;5.40;;;4.10;99.90;;;3.57;87.65;100956.56;4102162;28;20437;-72
2021/01/03 01:55:05;;;;;;;7.70;5.57;;;4.10;99.90;;;3.58;87.51;100953.03;4102358;28;20027;-72
2021/01/03 01:57:39;;;;;;;8.43;5.57;;;4.10;99.90;;;3.63;87.54;100950.91;4103321;28;20070;-72
2021/01/03 02:00:12;;;;;;;8.38;5.85;;;4.10;99.90;;;3.60;88.06;100951.13;4102933;28;20474;-72
2021/01/03 02:02:36;;;;;;;10.50;5.53;;;4.20;99.90;;;3.65;87.82;100959.47;4105319;28;20041;-72
2021/01/03 02:04:59;;;;;;;7.20;5.45;;;4.20;99.90;;;3.64;88.39;100953.44;4105105;28;20506;-72
2021/01/03 02:07:48;;;;;;;6.28;5.25;;;4.30;99.90;;;3.68;89.10;100951.41;4106393;28;20027;-72
2021/01/03 02:10:41;;;;;;;6.85;5.97;;;4.30;99.90;;;3.65;89.48;100954.25;4041786;29;20050;-72
2021/01/03 02:12:50;;;;;;;7.93;5.55;;;4.30;99.90;;;3.57;89.04;100940.91;4106351;28;20039;-72
2021/01/03 02:14:53;;;;;;;10.98;6.28;;;4.30;99.90;;;3.50;88.90;100940.50;4105008;28;20023;-72
2021/01/03 02:16:53;;;;;;;10.27;7.28;;;4.20;99.90;;;3.58;89.24;100943.44;4106180;28;20039;-72
2021/01/03 02:18:54;;;;;;;8.40;6.10;;;4.20;99.90;;;3.60;88.49;100941.53;4104884;28;20023;-72
2021/01/03 02:21:18;;;;;;;7.38;6.05;;;4.20;99.90;;;3.60;88.10;100936.31;4105989;28;20030;-72
2021/01/03 02:23:35;;;;;;;8.02;6.65;;;4.30;99.90;;;3.51;88.80;100939.56;4105050;28;20028;-72
2021/01/03 02:25:36;;;;;;;6.78;5.45;;;4.20;99.90;;;3.53;89.21;100937.69;4089548;29;20099;-72
2021/01/03 02:28:10;;;;;;;6.25;5.65;;;4.20;99.90;;;3.63;89.14;100932.66;4115268;28;20055;-72
2021/01/03 02:30:13;;;;;;;7.43;5.40;;;4.20;99.90;;;3.50;89.59;100930.06;4106138;28;20031;-72
2021/01/03 02:32:15;;;;;;;6.32;5.28;;;4.30;99.90;;;3.50;89.26;100929.22;4104912;28;20496;-72
2021/01/03 02:34:26;;;;;;;11.35;6.90;;;4.20;99.90;;;3.69;88.61;100933.06;4104544;28;20129;-72
2021/01/03 02:36:27;;;;;;;9.45;6.28;;;4.30;99.90;;;3.74;88.37;100935.34;4104741;28;20035;-72
2021/01/03 02:38:33;;;;;;;7.38;5.90;;;4.30;99.90;;;3.67;88.91;100915.88;4105947;28;20031;-72
2021/01/03 02:40:34;;;;;;;8.27;6.38;;;4.30;99.90;;;3.78;88.60;100929.81;4104779;28;20035;-72
2021/01/03 02:42:38;;;;;;;7.57;5.50;;;4.40;99.90;;;3.74;88.80;100922.28;4105675;28;20439;-72
2021/01/03 02:44:39;;;;;;;5.78;5.28;;;4.40;99.90;;;3.73;88.55;100920.66;4105562;28;20043;-72
2021/01/03 02:46:40;;;;;;;5.97;5.20;;;4.40;99.90;;;3.72;89.02;100917.19;4105870;28;20031;-72
2021/01/03 02:48:41;;;;;;;7.32;5.05;;;4.40;99.90;;;3.68;89.73;100914.91;4108582;28;20110;-72
2021/01/03 02:50:42;;;;;;;8.63;6.18;;;4.40;99.90;;;3.86;88.73;100921.44;4104250;28;20031;-72
2021/01/03 02:52:44;;;;;;;8.48;5.78;;;4.40;99.90;;;4.03;87.52;100909.81;4104242;29;20023;-72
2021/01/03 02:54:45;;;;;;;6.47;5.88;;;4.50;99.90;;;4.02;87.40;100911.59;4105978;28;20038;-72
2021/01/03 02:56:46;;;;;;;7.90;6.28;;;4.50;99.90;;;3.90;87.98;100909.84;4105512;28;20031;-72
2021/01/03 02:58:47;;;;;;;10.00;6.13;;;4.50;99.90;;;3.84;88.24;100905.06;4104429;28;20042;-72
2021/01/03 03:00:48;;;;;;;7.05;5.85;;;4.50;99.90;;;3.78;88.60;100902.88;4105682;28;20042;-72
2021/01/03 03:02:50;;;;;;;7.07;6.05;;;4.40;99.90;;;3.79;88.36;100900.16;4104140;29;20023;-72
2021/01/03 03:04:51;;;;;;;7.57;5.88;;;4.50;99.90;;;3.68;87.06;100907.06;4116074;28;20066;-72
2021/01/03 03:06:51;;;;;;;6.47;5.88;;;4.40;99.90;;;3.71;89.08;100909.47;4088455;29;20020;-72
2021/01/03 03:08:52;;;;;;;7.65;6.18;;;3.40;99.90;;;3.90;88.18;100896.81;4101524;28;20032;-72
2021/01/03 03:10:53;;;;;;;6.95;6.10;;;4.40;99.90;;;3.90;88.31;100896.81;4103653;28;20523;-72
2021/01/03 03:12:57;;;;;;;7.03;6.07;;;4.50;99.90;;;3.80;88.28;100896.63;4103674;29;20082;-72
2021/01/03 03:14:58;;;;;;;6.70;5.93;;;4.40;99.90;;;3.59;89.28;100892.06;4105418;28;20034;-72
2021/01/03 03:17:04;;;;;;;6.97;5.60;;;4.40;99.90;;;3.60;89.44;100888.53;4103962;28;20039;-72
2021/01/03 03:19:05;;;;;;;7.10;5.72;;;4.30;99.90;;;3.53;89.67;100892.50;4105263;28;20034;-72
2021/01/03 03:21:05;;;;;;;7.78;5.88;;;4.30;99.90;;;3.70;89.66;100884.34;4105270;28;20027;-72
2021/01/03 03:23:06;;;;;;;8.00;6.30;;;4.30;99.90;;;3.84;89.14;100892.03;4105180;28;20037;-72
2021/01/03 03:25:09;;;;;;;6.90;6.00;;;4.40;99.90;;;3.81;88.65;100884.41;4104962;28;20034;-72
2021/01/03 03:27:10;;;;;;;7.47;6.68;;;4.40;99.90;;;3.90;89.14;100888.97;4103971;28;20075;-72
2021/01/03 03:29:11;;;;;;;6.47;5.88;;;4.40;99.90;;;4.07;87.64;100892.97;4103935;29;20027;-72
2021/01/03 03:31:11;;;;;;;7.43;6.15;;;3.60;99.90;;;3.96;87.94;100885.09;4105065;28;20067;-72
2021/01/03 03:33:12;;;;;;;7.45;5.93;;;4.50;99.90;;;3.96;88.48;100885.09;4103782;28;20031;-72
2021/01/03 03:35:13;;;;;;;6.95;6.32;;;4.60;99.90;;;3.97;88.14;100886.75;4104871;28;20091;-72
2021/01/03 03:37:14;;;;;;;6.32;5.72;;;4.50;99.90;;;3.83;88.98;100888.56;4103802;28;20039;-72
2021/01/03 03:39:15;;;;;;;6.63;6.03;;;4.50;99.90;;;3.83;89.58;100877.28;4103691;29;20541;-72
2021/01/03 03:41:26;;;;;;;6.40;5.68;;;4.50;99.90;;;3.79;89.46;100883.69;4090560;29;20032;-72
2021/01/03 03:43:27;;;;;;;6.55;5.28;;;4.50;99.90;;;3.80;89.62;100877.50;4103569;28;20130;-72
2021/01/03 03:45:28;;;;;;;7.18;5.47;;;4.50;99.90;;;3.89;89.17;100880.31;4104855;28;20031;-72
2021/01/03 03:47:29;;;;;;;7.38;5.53;;;4.50;99.90;;;3.71;89.57;100859.91;4105409;28;20028;-72
2021/01/03 03:49:32;;;;;;;6.07;5.35;;;4.50;99.90;;;3.76;89.86;100868.25;4105967;28;20034;-72
2021/01/03 03:51:33;;;;;;;5.75;5.15;;;4.40;99.90;;;3.86;89.32;100864.88;4103763;28;20064;-72
2021/01/03 03:53:34;;;;;;;7.18;5.68;;;4.40;99.90;;;3.95;89.07;100858.16;4103703;29;20063;-72
2021/01/03 03:55:34;;;;;;;6.18;5.57;;;4.50;99.90;;;3.85;89.90;100855.38;4104832;28;20086;-72
2021/01/03 03:57:35;;;;;;;7.15;6.35;;;4.50;99.90;;;3.92;88.77;100861.81;4104589;28;20388;-72
2021/01/03 03:59:38;;;;;;;10.10;5.68;;;4.50;99.90;;;3.99;87.78;100858.75;4104821;28;20169;-72
2021/01/03 04:01:39;;;;;;;9.85;6.65;;;4.50;99.90;;;3.97;88.69;100845.84;4087602;29;20466;-72
2021/01/03 04:03:40;;;;;;;8.65;7.63;;;4.50;99.90;;;4.06;87.84;100852.97;4103258;29;20035;-72
2021/01/03 04:05:44;;;;;;;9.50;6.85;;;4.50;99.90;;;4.12;87.26;100852.53;4113903;28;20058;-72
2021/01/03 04:07:45;;;;;;;11.05;9.25;;;4.50;99.90;;;3.96;88.04;100853.75;4104660;28;20019;-72
2021/01/03 04:09:46;;;;;;;10.55;7.75;;;4.50;99.90;;;3.74;87.54;100846.66;4104549;28;20066;-72
2021/01/03 04:11:50;;;;;;;8.60;6.97;;;4.50;99.90;;;3.70;88.51;100843.41;4104374;28;20015;-72
2021/01/03 04:13:51;;;;;;;13.07;10.40;;;4.40;99.90;;;3.70;89.08;100843.41;4103201;28;20031;-72
2021/01/03 04:15:52;;;;;;;11.80;8.93;;;4.40;99.90;;;3.68;89.64;100841.88;4104623;28;20042;-72
2021/01/03 04:17:52;;;;;;;12.73;9.55;;;4.40;99.90;;;3.77;89.43;100844.66;4104425;28;20051;-72
2021/01/03 04:19:53;;;;;;;14.35;10.30;;;4.30;99.90;;;3.74;89.45;100839.66;4104029;28;20217;-72
2021/01/03 04:22:01;;;;;;;13.52;9.95;;;4.30;99.90;;;3.79;88.40;100845.38;4104309;28;20034;-72
2021/01/03 04:24:02;;;;;;;14.20;9.68;;;4.30;99.90;;;3.79;88.52;100834.94;4103977;28;20495;-71
2021/01/03 04:26:02;;;;;;;14.80;10.00;;;4.30;99.90;;;3.68;88.31;100839.25;4104203;28;20034;-71
2021/01/03 04:28:04;;;;;;;14.02;10.15;;;4.30;99.90;;;3.56;88.86;100840.13;4104279;28;20490;-72
2021/01/03 04:30:08;;;;;;;10.27;8.02;;;4.20;99.90;;;3.41;89.59;100838.59;4087320;29;20410;-72
2021/01/03 04:32:11;;;;;;;8.50;6.65;;;4.10;99.90;;;3.44;90.17;100834.00;4103049;29;20368;-72
2021/01/03 04:34:14;;;;;;;8.82;7.93;;;4.10;99.90;;;3.54;90.29;100836.81;4102720;28;20042;-72
2021/01/03 04:36:17;;;;;;;10.77;7.40;;;4.10;99.90;;;3.56;89.45;100834.91;4102923;29;20114;-72
2021/01/03 04:38:18;;;;;;;8.15;5.65;;;4.10;99.90;;;3.59;89.31;100830.31;4102711;29;20035;-72
2021/01/03 04:40:29;;;;;;;10.75;6.47;;;4.20;99.90;;;3.65;89.68;100829.03;4113402;28;20031;-72
2021/01/03 04:42:33;;;;;;;6.15;5.20;;;4.20;99.90;;;3.54;90.35;100819.38;4105797;28;20099;-72
2021/01/03 04:44:40;;;;;;;7.05;5.47;;;4.20;99.90;;;3.59;89.34;100832.09;4102650;29;20137;-72
2021/01/03 04:46:42;;;;;;;5.85;4.80;;;4.20;99.90;;;3.48;89.78;100818.97;4102751;29;20035;-72
2021/01/03 04:48:45;;;;;;;7.18;5.93;;;4.20;99.90;;;3.68;89.13;100826.22;4078834;29;20038;-72
2021/01/03 04:50:49;;;;;;;8.55;7.22;;;4.20;99.90;;;3.94;87.85;100835.63;4086576;29;20024;-72
2021/01/03 04:52:53;;;;;;;10.40;7.82;;;4.30;99.90;;;4.02;88.26;100838.50;4103765;29;20023;-72
2021/01/03 04:55:13;;;;;;;8.98;7.15;;;4.40;99.90;;;3.93;87.33;100828.72;4103896;29;20042;-72
2021/01/03 04:57:24;;;;;;;13.05;7.75;;;4.40;99.90;;;3.84;87.95;100822.41;4102596;29;20458;-72
2021/01/03 05:00:04;;;;;;;10.70;8.48;;;4.40;99.90;;;3.86;87.44;100832.72;4103937;29;20027;-72
2021/01/03 05:03:08;;;;;;;8.57;7.57;;;4.40;99.90;;;3.87;87.75;100834.41;4054506;29;20042;-72
2021/01/03 05:05:34;;;;;;;8.88;7.18;;;4.40;99.90;;;3.73;88.41;100837.16;4040734;29;20446;-72
2021/01/03 05:07:41;;;;;;;8.40;7.10;;;4.40;99.90;;;3.58;88.79;100827.84;4066804;29;20044;-72
2021/01/03 05:09:42;;;;;;;11.07;7.82;;;4.30;99.90;;;3.50;88.59;100827.53;4102443;29;20066;-72
2021/01/03 05:12:19;;;;;;;7.90;7.10;;;4.30;99.90;;;3.31;89.16;100831.47;4102558;29;20023;-72
2021/01/03 05:14:47;;;;;;;8.68;7.25;;;4.20;99.90;;;3.22;90.44;100815.63;4090061;29;20038;-72
2021/01/03 05:16:56;;;;;;;7.03;6.30;;;4.10;99.90;;;3.30;91.07;100824.56;4103618;29;20495;-72
2021/01/03 05:18:57;;;;;;;8.52;6.60;;;4.10;99.90;;;3.30;91.38;100823.72;4102401;29;20039;-72
2021/01/03 05:21:06;;;;;;;7.15;6.45;;;4.20;99.90;;;3.14;91.10;100823.97;4102569;29;20039;-72
2021/01/03 05:23:19;;;;;;;8.13;6.10;;;4.00;99.90;;;3.26;91.75;100827.47;4087505;29;20520;-72
2021/01/03 05:25:40;;;;;;;7.38;6.57;;;3.60;99.90;;;3.33;91.78;100829.56;4102246;29;20546;-72
2021/01/03 05:27:41;;;;;;;7.45;6.72;;;4.00;99.90;;;3.47;91.84;100825.13;4102464;29;20035;-72
2021/01/03 05:29:42;;;;;;;13.13;8.07;;;4.10;99.90;;;3.72;91.39;100818.06;4103239;29;20023;-72
2021/01/03 05:32:03;;;;;;;11.95;7.63;;;4.20;99.90;;;3.96;89.65;100823.28;4103316;29;20395;-72
2021/01/03 05:34:08;;;;;;;9.23;8.25;;;4.30;99.90;;;4.01;88.06;100817.72;4102200;28;20035;-72
2021/01/03 05:36:28;;;;;;;7.90;6.78;;;4.40;99.90;;;3.94;88.81;100824.34;4106603;29;20031;-72
2021/01/03 05:38:42;;;;;;;8.50;6.90;;;4.40;99.90;;;3.86;89.44;100820.50;4106708;29;20031;-72
2021/01/03 05:40:43;;;;;;;10.20;8.90;;;4.40;99.90;;;3.81;89.63;100819.19;4098143;29;20083;-72
2021/01/03 05:42:44;;;;;;;8.55;7.47;;;4.40;99.90;;;3.65;89.19;100821.22;4109831;28;20046;-72
2021/01/03 05:44:58;;;;;;;7.82;6.72;;;4.40;99.90;;;3.56;89.98;100819.25;4122520;28;20086;-72
2021/01/03 05:47:19;;;;;;;7.20;5.15;;;4.30;99.90;;;3.43;89.91;100813.28;4121620;28;20051;-72
2021/01/03 05:49:26;;;;;;;5.78;5.18;;;4.30;99.90;;;3.53;90.02;100820.31;4105110;29;20031;-72
2021/01/03 05:51:51;;;;;;;7.88;5.55;;;4.20;99.90;;;3.43;90.30;100821.09;4121478;28;20031;-72
2021/01/03 05:54:05;;;;;;;5.55;5.05;;;4.20;99.90;;;3.39;89.65;100806.59;4089920;29;20036;-72
2021/01/03 05:56:21;;;;;;;5.50;4.97;;;4.20;99.90;;;3.50;90.73;100825.75;4121357;28;20026;-72
2021/01/03 05:58:40;;;;;;;7.70;5.55;;;4.10;99.90;;;3.57;91.13;100824.38;4121394;28;20027;-72
2021/01/03 06:00:41;;;;;;;6.85;5.15;;;4.20;99.90;;;3.58;90.98;100825.22;4105747;28;20051;-72
2021/01/03 06:02:42;;;;;;;6.22;4.13;;;4.30;99.90;;;3.54;91.42;100821.16;4119537;28;20042;-71
2021/01/03 06:04:43;;;;;;;5.35;4.85;;;4.20;99.90;;;3.67;91.16;100829.78;4105026;28;20078;-72
2021/01/03 06:06:50;;;;;;;5.07;4.68;;;4.20;99.90;;;3.74;90.31;100834.44;4105249;29;20491;-71
2021/01/03 06:08:59;;;;;;;6.28;4.47;;;4.30;99.90;;;3.85;90.91;100831.06;4122419;28;20554;-71
2021/01/03 06:11:14;;;;;;;7.07;5.80;;;4.40;99.90;;;3.72;89.93;100830.28;4122473;28;20027;-71
2021/01/03 06:13:17;;;;;;;8.40;6.10;;;4.40;99.90;;;3.60;90.61;100834.59;4121154;28;20027;-71
2021/01/03 06:15:18;;;;;;;7.13;5.47;;;4.40;99.90;;;3.67;90.71;100827.19;4120998;28;20042;-71
2021/01/03 06:17:28;;;;;;;6.50;5.32;;;4.40;99.90;;;3.78;90.14;100832.44;4122289;28;20030;-72
2021/01/03 06:19:45;;;;;;;5.70;5.10;;;4.40;99.90;;;3.82;89.90;100826.06;4122050;28;20035;-72
2021/01/03 06:21:46;;;;;;;8.85;5.97;;;4.40;99.90;;;3.68;90.34;100824.44;4104812;29;20031;-71
2021/01/03 06:24:19;;;;;;;6.20;5.50;;;4.40;99.90;;;3.84;89.75;100832.84;4121824;28;20034;-72
2021/01/03 06:26:28;;;;;;;7.60;5.55;;;4.40;99.90;;;3.75;89.80;100827.44;4121079;28;20022;-71
2021/01/03 06:28:50;;;;;;;5.55;4.80;;;4.50;99.90;;;3.67;90.86;100830.63;4120792;28;20027;-71
2021/01/03 06:30:55;;;;;;;5.57;4.93;;;4.40;99.90;;;3.54;91.09;100835.03;4105105;28;20023;-71
2021/01/03 06:33:33;;;;;;;6.47;5.47;;;4.30;99.90;;;3.54;90.89;100836.81;4122035;28;20398;-71
2021/01/03 06:35:56;;;;;;;5.90;5.30;;;4.30;99.90;;;3.41;91.54;100825.56;4121792;28;20055;-72
2021/01/03 06:38:19;;;;;;;7.85;5.47;;;4.30;99.90;;;3.43;91.64;100841.94;4120998;28;20031;-72
2021/01/03 06:40:33;;;;;;;6.93;5.18;;;4.20;99.90;;;3.52;91.15;100833.47;4116388;28;20020;-72
2021/01/03 06:42:43;;;;;;;6.53;5.30;;;4.20;99.90;;;3.62;91.16;100839.69;4107368;28;20051;-72
2021/01/03 06:45:38;;;;;;;6.63;5.70;;;4.30;99.90;;;3.63;91.80;100841.38;4105435;29;20032;-72
2021/01/03 06:48:16;;;;;;;7.43;6.30;;;4.20;99.90;;;3.60;91.94;100842.44;4088586;29;20147;-72
2021/01/03 06:50:47;;;;;;;6.93;5.38;;;4.30;99.90;;;3.47;92.31;100851.22;4086211;29;20028;-72
2021/01/03 06:53:12;;;;;;;11.85;8.98;;;4.30;99.90;;;3.42;91.63;100843.72;4105555;29;20031;-72
2021/01/03 06:56:04;;;;;;;14.43;10.60;;;4.20;99.90;;;3.40;91.71;100856.03;4104658;29;20031;-71
2021/01/03 06:58:14;;;;;;;12.52;10.20;;;4.10;99.90;;;3.33;91.39;100854.78;4097649;29;20046;-72
2021/01/03 07:00:46;;;;;;;11.98;9.55;;;4.00;99.90;;;3.15;91.79;100841.28;4088290;29;20071;-71
2021/01/03 07:03:02;;;;;;;12.85;11.07;;;4.00;99.90;;;3.29;91.63;100846.34;4104446;29;20033;-72
2021/01/03 07:05:09;;;;;;;10.90;9.75;;;4.00;99.90;;;3.29;91.72;100848.13;4104007;29;20040;-71
2021/01/03 07:07:20;;;;;;;14.10;12.35;;;4.00;99.90;;;3.43;91.92;100850.63;4104250;29;20031;-72
2021/01/03 07:09:21;;;;;;;14.27;11.95;;;4.10;99.90;;;3.39;92.32;100850.91;4105520;29;20028;-72
2021/01/03 07:11:51;;;;;;;11.77;10.57;;;4.10;99.90;;;3.42;91.92;100856.75;4104308;29;20041;-72
2021/01/03 07:13:52;;;;;;;10.25;8.43;;;4.10;99.90;;;3.37;92.55;100855.41;4105190;29;20057;-72
2021/01/03 07:15:56;;;;;;;10.48;7.78;;;4.10;99.90;;;3.48;92.69;100845.06;4104258;29;20027;-71
2021/01/03 07:17:57;;;;;;;6.93;6.18;;;4.20;99.90;;;3.30;92.72;100853.25;4088346;29;20067;-71
2021/01/03 07:20:04;;;;;;;10.15;8.10;;;4.20;99.90;;;3.44;92.52;100847.03;4104928;29;20055;-71
2021/01/03 07:22:51;;;;;;;10.07;8.45;;;4.10;99.90;;;3.59;92.23;100851.19;4103842;29;20035;-71
2021/01/03 07:24:51;;;;;;;10.00;8.25;;;4.20;99.90;;;3.72;90.98;100851.16;4104039;29;20035;-72
2021/01/03 07:27:29;;;;;;;11.27;8.63;;;4.30;99.90;;;3.62;90.63;100850.13;4104909;29;20086;-72
2021/01/03 07:29:31;;;;;;;10.32;8.32;;;4.30;99.90;;;3.66;90.94;100838.53;4105107;29;20372;-72
2021/01/03 07:32:03;;;;;;;9.45;7.72;;;4.30;99.90;;;3.74;90.25;100841.44;4103844;29;20430;-72
2021/01/03 07:34:20;;;;;;;8.73;7.70;;;4.30;99.90;;;3.74;89.75;100850.09;4103624;29;20462;-71
2021/01/03 07:36:26;;;;;;;10.40;8.60;;;4.30;99.90;;;3.74;89.82;100844.03;4104939;29;20031;-72
2021/01/03 07:38:31;;;;;;;8.65;7.63;;;4.30;99.90;;;3.78;89.37;100854.16;4104801;28;20039;-71
2021/01/03 07:41:05;;;;;;;10.10;8.27;;;4.30;99.90;;;3.78;89.29;100850.72;4097605;29;20027;-71
2021/01/03 07:43:06;;;;;;;10.23;8.63;;;4.40;99.90;;;3.63;89.30;100851.81;4114874;28;20078;-72
2021/01/03 07:45:27;;;;;;;11.75;8.15;;;4.30;99.90;;;3.66;89.56;100848.97;4120702;28;20026;-72
2021/01/03 07:47:53;;;;;;;8.18;7.38;;;4.30;99.90;;;3.61;89.66;100853.69;4119420;28;20038;-72
2021/01/03 07:50:14;;;;;;;10.00;8.00;;;4.30;99.90;;;3.55;89.45;100841.94;4080709;28;20027;-72
2021/01/03 07:52:17;;;;;;;9.73;8.10;;;4.30;99.90;;;3.62;89.43;100856.19;4103161;29;20406;-72
2021/01/03 07:54:18;;;;;;;9.17;8.17;;;4.30;99.90;;;3.62;88.91;100847.53;4120259;28;20031;-72
2021/01/03 07:56:22;;;;;;;9.48;7.75;;;4.30;99.90;;;3.58;89.71;100853.91;4119358;28;20455;-71
2021/01/03 07:58:24;;;;;;;9.10;8.18;;;4.30;99.90;;;3.40;90.22;100847.38;4119671;28;20035;-71
2021/01/03 08:00:28;;;;;;;9.07;7.20;;;4.20;99.90;;;3.39;90.09;100849.16;4119052;28;20038;-71
2021/01/03 08:02:32;;;;;;;9.23;8.23;;;4.20;99.90;;;3.53;89.85;100851.63;4103004;28;20106;-71
2021/01/03 08:04:33;;;;;;;9.82;8.02;;;4.20;99.90;;;3.57;89.33;100860.91;4118983;28;20025;-72
2021/01/03 08:06:34;;;;;;;8.63;7.72;;;4.20;99.90;;;3.58;89.70;100859.97;4119005;28;20030;-72
2021/01/03 08:08:35;;;;;;;9.57;8.13;;;4.20;99.90;;;3.49;89.66;100868.44;4120123;28;20027;-72
2021/01/03 08:11:31;;;;;;;8.82;7.28;;;4.20;99.90;;;3.58;89.21;100859.13;4118881;28;20027;-72
2021/01/03 08:13:39;;;;;;;10.77;8.00;;;4.10;99.90;;;3.43;90.33;100861.03;4120032;28;20023;-72
2021/01/03 08:15:40;;;;;;;9.60;8.57;;;4.20;99.90;;;3.37;89.61;100865.84;4119004;28;20262;-72
2021/01/03 08:17:43;;;;;;;9.20;7.80;;;4.10;99.90;;;3.45;89.45;100866.13;4103108;29;20066;-72
2021/01/03 08:19:44;;;;;;;8.60;7.80;;;4.10;99.90;;;3.57;89.27;100873.09;4102713;28;20059;-72
2021/01/03 08:21:58;;;;;;;10.43;7.97;;;4.10;99.90;;;3.43;88.95;100866.25;4120010;28;20026;-72
2021/01/03 08:24:28;;;;;;;8.63;7.60;;;4.10;99.90;;;3.33;89.73;100860.84;4118900;28;20059;-72
2021/01/03 08:26:38;;;;;;;9.52;8.50;;;4.10;99.90;;;3.41;89.79;100872.50;4118253;28;20034;-72
2021/01/03 08:29:32;;;;;;;8.63;7.63;;;4.10;99.90;;;3.49;89.58;100881.47;4118878;28;20414;-72
2021/01/03 08:31:41;;;;;;;9.20;8.30;;;4.10;99.90;;;3.48;89.09;100877.19;4118822;28;20101;-72
2021/01/03 08:33:43;;;;;;;9.80;8.80;;;4.10;99.90;;;3.45;89.48;100874.81;4118610;28;20023;-71
2021/01/03 08:35:44;;;;;;;10.55;8.43;;;4.20;99.90;;;3.50;88.95;100879.69;4118722;28;20461;-71
2021/01/03 08:37:48;;;;;;;10.32;9.15;;;4.20;99.90;;;3.50;88.45;100877.91;4102752;28;20050;-71
2021/01/03 08:39:52;;;;;;;9.75;8.60;;;4.10;99.90;;;3.54;88.81;100886.34;4118069;28;20549;-72
2021/01/03 08:42:05;;;;;;;9.25;8.07;;;4.20;99.90;;;3.51;90.45;100887.41;4102628;28;20035;-72
2021/01/03 08:44:07;;;;;;;9.32;8.38;;;4.20;99.90;;;3.63;88.67;100888.31;4096592;28;20039;-72
2021/01/03 08:46:09;;;;;;;12.70;8.23;;;4.30;99.90;;;3.76;88.63;100882.09;4118451;28;20027;-72
2021/01/03 08:48:22;;;;;;;9.77;8.55;;;4.30;99.90;;;3.81;87.78;100879.19;4102472;29;20431;-72
2021/01/03 08:50:29;;;;;;;8.75;7.85;;;4.40;99.90;;;3.91;88.04;100882.81;4118262;28;20031;-72
2021/01/03 08:52:30;;;;;;;9.00;7.10;;;4.50;99.90;;;3.90;87.10;100883.75;4118507;28;20026;-72
2021/01/03 08:54:31;;;;;;;11.93;8.45;;;4.60;99.90;;;3.97;87.13;100877.16;4119473;28;20486;-72
2021/01/03 08:56:41;;;;;;;8.55;7.65;;;4.60;99.90;;;3.80;88.32;100877.50;4118432;28;20030;-72
2021/01/03 08:58:42;;;;;;;10.07;8.02;;;4.50;99.90;;;3.88;87.19;100883.03;4103228;28;20522;-72
2021/01/03 09:00:48;;;;;;;8.68;7.78;;;4.70;99.90;;;3.89;87.98;100879.47;4106271;28;20031;-72
2021/01/03 09:02:56;;;;;;;8.57;6.90;;;4.70;99.90;;;4.03;87.25;100886.31;4119376;28;20034;-72